createdAt,value
2023-04-19T03:57:33.828Z,100333.75
2023-04-19T04:00:37.501Z,100333.75
2023-04-19T04:03:40.153Z,100344.47
2023-04-19T04:06:42.616Z,100337.62
2023-04-19T04:09:47.279Z,100338.03
2023-04-19T04:12:49.451Z,100334.94
2023-04-19T04:15:53.105Z,100333.88
2023-04-19T04:18:55.641Z,100335.34
2023-04-19T04:21:59.614Z,100338.22
2023-04-19T04:25:02.728Z,100328.09
2023-04-19T04:28:06.731Z,100325.03
2023-04-19T04:31:09.895Z,100324.69
2023-04-19T04:34:12.524Z,100323.72
2023-04-19T04:37:16.341Z,100330.41
2023-04-19T04:40:19.293Z,100320.06
2023-04-19T04:43:23.997Z,100324.69
2023-04-19T04:46:27.981Z,100324.06
2023-04-19T04:49:31.110Z,100323.34
2023-04-19T04:55:41.312Z,100326.31
2023-04-19T04:58:43.913Z,100326.97
2023-04-19T05:01:49.382Z,100317.06
2023-04-19T05:04:52.348Z,100318.37
2023-04-19T05:07:54.566Z,100321.38
2023-04-19T05:10:57.089Z,100320.28
2023-04-19T05:13:59.525Z,100318.22
2023-04-19T05:17:04.361Z,100320.41
2023-04-19T05:20:08.511Z,100316.22
2023-04-19T05:23:11.592Z,100318.91
2023-04-19T05:26:15.817Z,100317.28
2023-04-19T05:29:18.469Z,100321.25
2023-04-19T05:32:21.230Z,100311.44
2023-04-19T05:35:24.392Z,100315.75
2023-04-19T05:38:26.619Z,100315.34
2023-04-19T05:41:31.299Z,100306.59
2023-04-19T05:44:33.501Z,100306.28
2023-04-19T05:47:36.333Z,100302.94
2023-04-19T05:50:40.475Z,100314.22
2023-04-19T05:53:46.161Z,100303.81
2023-04-19T05:56:48.569Z,100304.84
2023-04-19T05:59:51.687Z,100299.66
2023-04-19T06:02:54.287Z,100300.16
2023-04-19T06:05:57.028Z,100294.31
2023-04-19T06:08:59.401Z,100294.63
2023-04-19T06:12:02.186Z,100303.25
2023-04-19T06:18:18.630Z,100301.25
2023-04-19T06:21:22.025Z,100291.41
2023-04-19T06:24:24.419Z,100294.91
2023-04-19T06:27:27.331Z,100292.22
2023-04-19T06:30:29.801Z,100287.28
2023-04-19T06:33:31.975Z,100301.75
2023-04-19T06:36:34.356Z,100299.03
2023-04-19T06:39:36.484Z,100288.41
2023-04-19T06:42:38.948Z,100289.19
2023-04-19T06:48:48.964Z,100284.56
2023-04-19T06:58:07.816Z,100286.31
2023-04-19T07:01:10.600Z,100275.97
2023-04-19T07:04:13.579Z,100282.66
2023-04-19T07:07:16.579Z,100276.75
2023-04-19T07:10:18.655Z,100274.37
2023-04-19T07:13:21.148Z,100270.06
2023-04-19T07:16:23.777Z,100267.19
2023-04-19T07:19:26.393Z,100269.06
2023-04-19T07:22:28.504Z,100260.47
2023-04-19T07:25:30.936Z,100265.69
2023-04-19T07:28:34.609Z,100273.78
2023-04-19T07:31:37.331Z,100265.69
2023-04-19T07:34:41.262Z,100257.37
2023-04-19T07:37:43.735Z,100267.72
2023-04-19T07:40:45.923Z,100254.81
2023-04-19T07:43:48.365Z,100253.66
2023-04-19T07:46:50.970Z,100248.06
2023-04-19T07:49:53.570Z,100263.16
2023-04-19T07:52:56.649Z,100256.31
2023-04-19T07:55:59.023Z,100258.84
2023-04-19T07:59:08.620Z,100254.06
2023-04-19T08:02:11.707Z,100256.78
2023-04-19T08:05:17.562Z,100251.00
2023-04-19T08:08:20.097Z,100248.91
2023-04-19T08:11:22.548Z,100244.66
2023-04-19T08:14:37.651Z,100243.00
2023-04-19T08:17:44.166Z,100247.31
2023-04-19T08:20:47.475Z,100249.66
2023-04-19T08:23:51.977Z,100246.00
2023-04-19T08:26:58.765Z,100252.06
2023-04-19T08:30:03.581Z,100252.59
2023-04-19T08:33:06.032Z,100248.69
2023-04-19T08:36:08.874Z,100252.81
2023-04-19T08:39:18.011Z,100244.25
2023-04-19T08:42:35.575Z,100247.91
2023-04-19T08:45:39.853Z,100250.81
2023-04-19T08:48:43.635Z,100243.16
2023-04-19T08:51:48.137Z,100249.69
2023-04-19T08:54:51.714Z,100240.34
2023-04-19T08:57:53.909Z,100240.13
2023-04-19T09:00:58.190Z,100231.66
2023-04-19T09:04:16.184Z,100239.56
2023-04-19T09:07:24.258Z,100231.91
2023-04-19T09:10:27.294Z,100231.25
2023-04-19T09:13:30.199Z,100232.81
2023-04-19T09:16:32.457Z,100229.66
2023-04-19T09:19:48.835Z,100228.22
2023-04-19T09:23:06.075Z,100226.31
2023-04-19T09:26:22.716Z,100226.34
2023-04-19T09:29:26.888Z,100228.13
2023-04-19T09:32:45.659Z,100230.31
2023-04-19T09:35:49.744Z,100227.47
2023-04-19T09:38:52.692Z,100221.84
2023-04-19T09:41:55.102Z,100218.88
2023-04-19T09:48:08.085Z,100211.78
2023-04-19T09:51:14.403Z,100213.78
2023-04-19T09:54:17.984Z,100215.28
2023-04-19T09:57:20.520Z,100212.34
2023-04-19T10:00:23.246Z,100206.03
2023-04-19T10:03:29.225Z,100206.72
2023-04-19T10:06:51.915Z,100199.22
2023-04-19T10:10:05.048Z,100201.09
2023-04-19T10:13:21.420Z,100193.84
2023-04-19T10:16:26.501Z,100193.75
2023-04-19T10:19:29.615Z,100199.75
2023-04-19T10:22:33.235Z,100188.41
2023-04-19T10:25:38.661Z,100187.09
2023-04-19T10:28:41.818Z,100186.97
2023-04-19T10:31:44.008Z,100180.59
2023-04-19T10:34:47.165Z,100186.44
2023-04-19T10:38:12.700Z,100170.75
2023-04-19T10:41:18.526Z,100177.56
2023-04-19T10:44:21.286Z,100169.66
2023-04-19T10:47:45.978Z,100185.53
2023-04-19T10:51:04.772Z,100185.28
2023-04-19T10:54:09.215Z,100188.66
2023-04-19T10:57:11.546Z,100183.28
2023-04-19T11:00:25.704Z,100182.56
2023-04-19T11:03:46.078Z,100186.66
2023-04-19T11:06:51.679Z,100182.28
2023-04-19T11:09:54.305Z,100183.59
2023-04-19T11:12:58.443Z,100180.22
2023-04-19T11:16:07.622Z,100178.59
2023-04-19T11:19:11.752Z,100175.69
2023-04-19T11:22:14.025Z,100174.72
2023-04-19T11:25:19.457Z,100175.16
2023-04-19T11:28:21.738Z,100177.84
2023-04-19T11:31:25.434Z,100172.41
2023-04-19T11:34:27.527Z,100172.03
2023-04-19T11:37:35.812Z,100176.97
2023-04-19T11:40:38.617Z,100169.75
2023-04-19T11:43:41.741Z,100166.84
2023-04-19T11:47:00.687Z,100176.00
2023-04-19T11:50:32.324Z,100171.53
2023-04-19T11:53:34.466Z,100170.56
2023-04-19T11:56:36.833Z,100170.16
2023-04-19T11:59:39.027Z,100170.81
2023-04-19T12:02:43.377Z,100170.34
2023-04-19T12:05:53.818Z,100177.84
2023-04-19T12:08:57.191Z,100170.97
2023-04-19T12:11:59.913Z,100158.78
2023-04-19T12:15:02.082Z,100165.94
2023-04-19T12:18:04.529Z,100172.53
2023-04-19T12:21:06.696Z,100171.22
2023-04-19T12:24:09.279Z,100165.47
2023-04-19T12:27:12.090Z,100153.22
2023-04-19T12:30:14.594Z,100150.16
2023-04-19T12:33:18.322Z,100155.56
2023-04-19T12:36:30.402Z,100155.47
2023-04-19T12:39:32.624Z,100155.00
2023-04-19T12:42:35.388Z,100153.81
2023-04-19T12:45:39.660Z,100146.75
2023-04-19T12:48:43.254Z,100146.47
2023-04-19T12:51:47.478Z,100144.03
2023-04-19T12:54:50.033Z,100149.31
2023-04-19T12:57:52.197Z,100142.19
2023-04-19T13:00:54.805Z,100141.19
2023-04-19T13:03:59.348Z,100137.69
2023-04-19T13:07:02.178Z,100136.44
2023-04-19T13:10:04.656Z,100129.38
2023-04-19T13:13:07.049Z,100134.44
2023-04-19T13:16:09.288Z,100129.72
2023-04-19T13:19:11.689Z,100124.87
2023-04-19T13:22:13.847Z,100121.16
2023-04-19T13:25:16.239Z,100123.56
2023-04-19T13:28:18.377Z,100129.44
2023-04-19T13:31:20.821Z,100121.63
2023-04-19T13:34:23.040Z,100120.28
2023-04-19T13:37:25.532Z,100132.25
2023-04-19T13:40:27.696Z,100119.59
2023-04-19T13:43:30.413Z,100113.84
2023-04-19T13:46:33.480Z,100124.56
2023-04-19T13:49:35.993Z,100116.66
2023-04-19T13:52:38.088Z,100110.75
2023-04-19T13:55:41.320Z,100116.88
2023-04-19T13:58:43.525Z,100113.38
2023-04-19T14:01:46.026Z,100117.34
2023-04-19T14:04:48.476Z,100118.00
2023-04-19T14:07:50.726Z,100110.75
2023-04-19T14:10:53.696Z,100112.53
2023-04-19T14:13:55.991Z,100111.41
2023-04-19T14:16:58.389Z,100114.66
2023-04-19T14:20:00.577Z,100110.47
2023-04-19T14:23:03.813Z,100111.84
2023-04-19T14:26:05.962Z,100118.87
2023-04-19T14:29:08.338Z,100120.69
2023-04-19T14:32:24.098Z,100121.25
2023-04-19T14:35:27.545Z,100113.62
2023-04-19T14:38:29.736Z,100119.06
2023-04-19T14:41:32.113Z,100125.97
2023-04-19T14:44:34.198Z,100114.34
2023-04-19T14:47:36.606Z,100120.03
2023-04-19T14:50:38.807Z,100117.56
2023-04-19T14:53:41.312Z,100126.91
2023-04-19T14:56:43.596Z,100124.97
2023-04-19T14:59:46.618Z,100122.13
2023-04-19T15:02:48.927Z,100130.94
2023-04-19T15:05:51.498Z,100126.28
2023-04-19T15:08:53.689Z,100131.28
2023-04-19T15:11:56.411Z,100135.97
2023-04-19T15:14:58.568Z,100145.69
2023-04-19T15:18:01.218Z,100145.81
2023-04-19T15:21:04.324Z,100150.00
2023-04-19T15:24:08.014Z,100145.37
2023-04-19T15:27:10.160Z,100135.31
2023-04-19T15:30:12.785Z,100145.19
2023-04-19T15:33:14.952Z,100153.19
2023-04-19T15:36:17.861Z,100143.91
